Mooreland, Oklahoma
Current Conditions -  °F | °C
As of 4:15 PM on Wednesday 28 Jan 2015 (Local Time) from KWWR Reporting Station
Clear Clear  
Wind Chill: 75°   Ceiling: Unl
Heat Index: 75°   Visibility: 10mi
Dew Point: 28°   Wind: 9mph
Humidity: 18%   Direction: 360°N
Pressure: 29.94"   Gusts: NA
Location:  36.44°N, 99.2°W
Report Text: KWWR 282215Z AUTO 36008KT 10SM CLR 24/M02 A2994 RMK AO2
Loading
Personal Weather Stations






























Interactive Weather Map New forecast layout! Learn more

10-Day Weather Forecast

Advertisements
Track Severe Weather on mobile